Aircraft
UPR1004 PR-BIC B787-10
MMUN
Cancún International Airport
SVMI
Simón Bolívar International Airport
Pilot:: Jair
Aircraft:: 787-10
Alternate: SVBS
Network: ivao
FLIGHT DETAILS
Distance: 1307nm Duration 03h 01m
Cruise Speed: Flight Level: 35000
Validation: Validated Type Charter
Flight Fuel
ZFW: 160323
Block Fuel/Initial FOB: 62093
Flight Fuel: 17228
Cargo
Passengers: 320
Cargo: 32000
ROUTE
ROUTE: mmun dct svmi
REMARKS:
DATE
Date: 26-08-17
Departure Time: 2011
Cargo: 32000
FLIGHT DETAILS
Crashed: No
Validator Comments: Validado por Klebson
Flight Rating: 94
LANDING ANALYSIS
Landing wind: 89º/7 kt
Landing heading: 104º
Landing VS:: -157 ft/min
Landing IAS:: 138 kt
Landing Force G: 1 G
Landing Bank: 3
Landing Pitch: -6
Landing Flaps: 100
Navigation Lights: ON
Landing Lights: ON
Beacon Lights: ON
Strobe Lights: ON
viserfly

ALTITUDE CHART

viserfly

MAIN EVENTS

DATE EVENT IAS ALTITUDE
2026-08-17 20:06:44 FLYacars version 1.3.6 0 29
2026-08-17 20:06:44 Aircraft boarding in progress 0 29
2026-08-17 20:06:44 FLAPS 44% 0 29
2026-08-17 20:06:44 Navigation Lights ON 0 29
2026-08-17 20:06:44 Beacon Lights ON 0 29
2026-08-17 20:06:44 Strobe Lights ON 0 29
2026-08-17 20:06:44 Taxi Lights ON 0 29
2026-08-17 20:06:44 Starting Engine 2 0 29
2026-08-17 20:06:44 Starting Engine 1 0 29
2026-08-17 20:07:12 Aircraft taxiing to runway 0 29
2026-08-17 20:09:49 Landing Lights ON 2 30
2026-08-17 20:11:17 Detected Take-off roll, HDG 122, IAS 173kt, GS 169kt, G-force 1.0g, Pitch -4.8deg, Bank -3.1deg, Wind 099/11kt, Temp 30°C 173 31
2026-08-17 20:11:17 Airborne 173 31
2026-08-17 20:11:20 Gear UP, IAS 185kt, GS 179kt, ALT 55ft AGL 185 67
2026-08-17 20:11:33 Taxi Lights OFF 208 468
2026-08-17 20:11:38 FLAPS 33% 215kt, ALT 705ft 215 705
2026-08-17 20:11:39 FLAPS 22% 216kt, ALT 770ft 216 770
2026-08-17 20:11:40 FLAPS 11% 216kt, ALT 790ft 216 790
2026-08-17 20:11:40 FLAPS 0% 216kt, ALT 805ft 216 805
2026-08-17 20:19:17 Landing Lights OFF 251 10728
2026-08-17 20:31:30 Aircraft on Top Of Climb at 36519ft, IAS 282kt, GS 501kt, HDG 109deg, TAT -41deg, WIND 223/21kt 282 36519
2026-08-17 22:39:00 Aircraft on Top Of Descent at 34499ft, IAS 273kt, GS 476kt, HDG 141deg, TAT -37deg, WIND 345/16kt 273 34499
2026-08-17 22:54:28 FLAPS 11% 243kt, ALT 10011ft 243 10011
2026-08-17 22:55:14 Landing lights OFF below 10000fts 211 8997
2026-08-17 22:55:26 FLAPS 22% 208kt, ALT 8607ft 208 8607
2026-08-17 22:55:26 FLAPS 33% 208kt, ALT 8586ft 208 8586
2026-08-17 22:55:27 FLAPS 44% 208kt, ALT 8568ft 208 8568
2026-08-17 22:56:09 FLAPS 55% 190kt, ALT 7271ft 190 7271
2026-08-17 22:56:21 FLAPS 66% 185kt, ALT 6898ft 185 6898
2026-08-17 22:58:12 Gear DOWN, IAS 154kt, GS 162kt, ALT 3891ft AGL 154 3891
2026-08-17 22:58:24 FLAPS 77% 149kt, ALT 3887ft 149 3887
2026-08-17 22:58:24 FLAPS 88% 149kt, ALT 3887ft 149 3887
2026-08-17 22:58:25 FLAPS 100% 149kt, ALT 3887ft 149 3887
2026-08-17 23:01:04 Taxi Lights ON 150 4121
2026-08-17 23:01:05 Landing Lights ON 150 4122
2026-08-17 23:12:36 Stall flag 145 233
2026-08-17 23:12:42 Landed at destination with a landing rate of -157fpm, G-force 1.0g, Pitch -6.4deg, Bank 3.2deg, HDG 104deg, IAS 138kt, GS 136kt, Wind 089/07kt, Temp 28°C 138 214
2026-08-17 23:13:04 FLAPS 88% 42 193
2026-08-17 23:13:05 FLAPS 55% 40 192
2026-08-17 23:13:05 FLAPS 11% 40 192
2026-08-17 23:13:05 FLAPS 0% 39 192
2026-08-17 23:13:08 Aircraft taxiing to apron 30 192
2026-08-17 23:13:15 Landing Lights OFF 27 191
2026-08-17 23:18:22 Taxi speed above 25kt 24 182
2026-08-17 23:18:45 Landing Lights ON 0 174
2026-08-17 23:18:46 Landing Lights OFF 0 174
2026-08-17 23:18:49 Taxi Lights OFF 0 174
2026-08-17 23:19:17 Beacon Lights OFF 0 174
2026-08-17 23:19:23 Aircraft at gate/stand, ground services are moving into position, disembarkation has begun. Remaining FOB 44865kg FLYacars v1.3.6 0 174
viserfly

ACARS DATA

DATE IAS GS ALTITUDE FUEL CONSUMED OAT FLIGHT STATUS
2026-08-17 20:07:14 0 6 29 16 30 TAXI TO RUNWAY
2026-08-17 20:07:44 0 12 29 33 30 TAXI TO RUNWAY
2026-08-17 20:08:14 2 12 30 43 30 TAXI TO RUNWAY
2026-08-17 20:08:44 0 12 30 54 30 TAXI TO RUNWAY
2026-08-17 20:09:14 4 12 30 64 30 TAXI TO RUNWAY
2026-08-17 20:09:44 0 9 30 75 30 TAXI TO RUNWAY
2026-08-17 20:10:14 8 9 29 85 30 TAXI TO RUNWAY
2026-08-17 20:10:44 28 19 29 107 30 TAXI TO RUNWAY
2026-08-17 20:11:14 161 159 28 280 30 TAKEOFF
2026-08-17 20:11:44 216 210 1029 461 25 TAKEOFF
2026-08-17 20:12:14 231 233 2451 587 22 CLIMB
2026-08-17 20:12:44 251 255 4394 728 19 CLIMB
2026-08-17 20:13:14 261 271 5119 803 18 ENROUTE
2026-08-17 20:13:44 251 262 5118 829 18 ENROUTE
2026-08-17 20:14:14 252 262 6073 907 17 CLIMB
2026-08-17 20:14:44 251 274 8259 1043 13 CLIMB
2026-08-17 20:15:14 258 286 8803 1109 12 ENROUTE
2026-08-17 20:15:44 251 279 8807 1137 12 ENROUTE
2026-08-17 20:16:14 251 279 8802 1170 12 ENROUTE
2026-08-17 20:16:44 252 278 8805 1204 12 ENROUTE
2026-08-17 20:17:14 252 278 8805 1238 12 ENROUTE
2026-08-17 20:17:44 251 278 8803 1271 12 ENROUTE
2026-08-17 20:18:14 251 277 8801 1305 12 ENROUTE
2026-08-17 20:18:44 252 279 8894 1344 12 CLIMB
2026-08-17 20:19:14 250 281 10507 1449 9 CLIMB
2026-08-17 20:19:44 269 313 11930 1575 7 CLIMB
2026-08-17 20:20:14 291 343 13151 1699 5 CLIMB
2026-08-17 20:20:44 294 356 14822 1821 2 CLIMB
2026-08-17 20:21:14 295 366 16544 1940 0 CLIMB
2026-08-17 20:21:44 295 376 18149 2054 -3 CLIMB
2026-08-17 20:22:14 296 385 19647 2164 -6 CLIMB
2026-08-17 20:22:44 296 393 21091 2271 -9 CLIMB
2026-08-17 20:23:14 296 401 22451 2375 -12 CLIMB
2026-08-17 20:23:44 296 409 23719 2476 -14 CLIMB
2026-08-17 20:24:14 294 415 24921 2573 -17 CLIMB
2026-08-17 20:24:44 296 424 25994 2668 -19 CLIMB
2026-08-17 20:25:14 295 433 26969 2761 -21 CLIMB
2026-08-17 20:25:44 293 442 27923 2853 -23 CLIMB
2026-08-17 20:26:14 293 451 28800 2942 -25 CLIMB
2026-08-17 20:26:44 294 460 29617 3029 -26 CLIMB
2026-08-17 20:27:14 294 468 30392 3116 -28 CLIMB
2026-08-17 20:27:44 294 476 31137 3200 -30 CLIMB
2026-08-17 20:28:14 294 484 31835 3283 -31 CLIMB
2026-08-17 20:28:44 295 491 32512 3365 -33 CLIMB
2026-08-17 20:29:14 295 499 33208 3445 -34 CLIMB
2026-08-17 20:29:44 296 504 33831 3524 -35 CLIMB
2026-08-17 20:30:14 292 504 34604 3602 -37 CLIMB
2026-08-17 20:30:44 287 503 35467 3677 -39 CLIMB
2026-08-17 20:31:14 283 501 36295 3750 -41 CLIMB
2026-08-17 20:31:44 281 499 36522 3799 -41 ENROUTE
2026-08-17 20:32:14 278 495 36515 3837 -41 ENROUTE
2026-08-17 20:32:44 277 493 36520 3879 -41 ENROUTE
2026-08-17 20:33:14 278 492 36536 3921 -42 ENROUTE
2026-08-17 20:33:44 273 494 36536 3966 -42 ENROUTE
2026-08-17 20:34:14 276 497 36539 4015 -42 ENROUTE
2026-08-17 20:34:44 276 498 36538 4058 -42 ENROUTE
2026-08-17 20:35:14 276 498 36539 4101 -42 ENROUTE
2026-08-17 20:35:44 276 498 36539 4145 -42 ENROUTE
2026-08-17 20:36:14 275 498 36539 4188 -41 ENROUTE
2026-08-17 20:36:44 276 501 36542 4235 -41 ENROUTE
2026-08-17 20:37:14 276 501 36543 4278 -41 ENROUTE
2026-08-17 20:37:44 276 501 36544 4321 -41 ENROUTE
2026-08-17 20:38:14 277 501 36545 4364 -41 ENROUTE
2026-08-17 20:38:44 276 501 36546 4407 -41 ENROUTE
2026-08-17 20:39:14 276 504 36545 4454 -41 ENROUTE
2026-08-17 20:39:44 276 504 36546 4498 -41 ENROUTE
2026-08-17 20:40:14 277 504 36547 4541 -41 ENROUTE
2026-08-17 20:40:44 277 504 36548 4584 -41 ENROUTE
2026-08-17 20:41:14 277 505 36549 4627 -41 ENROUTE
2026-08-17 20:41:44 276 505 36549 4671 -41 ENROUTE
2026-08-17 20:42:14 277 505 36549 4715 -41 ENROUTE
2026-08-17 20:42:44 277 505 36550 4758 -41 ENROUTE
2026-08-17 20:43:14 277 506 36551 4801 -41 ENROUTE
2026-08-17 20:43:44 277 506 36552 4845 -41 ENROUTE
2026-08-17 20:44:14 279 504 36557 4887 -41 ENROUTE
2026-08-17 20:44:44 278 502 36558 4927 -41 ENROUTE
2026-08-17 20:45:14 277 501 36557 4969 -41 ENROUTE
2026-08-17 20:45:44 279 498 36563 5009 -41 ENROUTE
2026-08-17 20:46:14 278 496 36563 5049 -41 ENROUTE
2026-08-17 20:46:44 276 496 36560 5092 -41 ENROUTE
2026-08-17 20:47:14 277 497 36557 5137 -41 ENROUTE
2026-08-17 20:47:44 277 497 36556 5180 -41 ENROUTE
2026-08-17 20:48:14 277 497 36556 5223 -41 ENROUTE
2026-08-17 20:48:44 277 497 36556 5266 -41 ENROUTE
2026-08-17 20:49:14 277 497 36556 5310 -41 ENROUTE
2026-08-17 20:49:44 278 496 36560 5352 -41 ENROUTE
2026-08-17 20:50:14 277 495 36561 5394 -41 ENROUTE
2026-08-17 20:50:44 277 495 36560 5436 -41 ENROUTE
2026-08-17 20:51:14 277 495 36559 5479 -41 ENROUTE
2026-08-17 20:51:44 277 494 36558 5522 -41 ENROUTE
2026-08-17 20:52:14 277 494 36558 5565 -41 ENROUTE
2026-08-17 20:52:44 277 494 36559 5608 -41 ENROUTE
2026-08-17 20:53:14 277 495 36559 5651 -41 ENROUTE
2026-08-17 20:53:44 277 495 36560 5694 -41 ENROUTE
2026-08-17 20:54:14 277 495 36560 5737 -41 ENROUTE
2026-08-17 20:54:44 279 494 36557 5780 -42 ENROUTE
2026-08-17 20:55:14 278 492 36560 5820 -42 ENROUTE
2026-08-17 20:55:44 277 491 36559 5862 -42 ENROUTE
2026-08-17 20:56:14 277 490 36558 5905 -42 ENROUTE
2026-08-17 20:56:44 276 490 36564 5948 -42 ENROUTE
2026-08-17 20:57:14 277 490 36555 5991 -42 ENROUTE
2026-08-17 20:57:44 276 490 36555 6034 -42 ENROUTE
2026-08-17 20:58:14 273 495 36552 6083 -41 ENROUTE
2026-08-17 20:58:44 276 500 36554 6134 -41 ENROUTE
2026-08-17 20:59:14 277 501 36557 6178 -41 ENROUTE
2026-08-17 20:59:44 277 501 36559 6221 -41 ENROUTE
2026-08-17 21:00:14 276 503 36559 6267 -41 ENROUTE
2026-08-17 21:00:44 277 503 36560 6311 -41 ENROUTE
2026-08-17 21:01:14 277 504 36561 6354 -41 ENROUTE
2026-08-17 21:01:44 277 504 36560 6397 -41 ENROUTE
2026-08-17 21:02:14 277 504 36561 6440 -41 ENROUTE
2026-08-17 21:02:44 277 504 36560 6485 -41 ENROUTE
2026-08-17 21:03:14 277 505 36561 6528 -41 ENROUTE
2026-08-17 21:03:44 277 505 36562 6572 -41 ENROUTE
2026-08-17 21:04:14 277 505 36563 6615 -41 ENROUTE
2026-08-17 21:04:44 277 505 36563 6658 -41 ENROUTE
2026-08-17 21:05:14 277 506 36564 6702 -41 ENROUTE
2026-08-17 21:05:44 277 506 36564 6746 -41 ENROUTE
2026-08-17 21:06:14 277 506 36565 6789 -41 ENROUTE
2026-08-17 21:06:44 277 506 36566 6833 -41 ENROUTE
2026-08-17 21:07:14 277 506 36567 6876 -41 ENROUTE
2026-08-17 21:07:44 279 506 36570 6919 -41 ENROUTE
2026-08-17 21:08:14 278 504 36572 6960 -41 ENROUTE
2026-08-17 21:08:44 277 503 36571 7002 -41 ENROUTE
2026-08-17 21:09:14 277 503 36570 7044 -41 ENROUTE
2026-08-17 21:09:44 277 502 36569 7087 -41 ENROUTE
2026-08-17 21:10:14 279 502 36569 7131 -42 ENROUTE
2026-08-17 21:10:44 278 500 36572 7171 -42 ENROUTE
2026-08-17 21:11:14 277 499 36570 7213 -42 ENROUTE
2026-08-17 21:11:44 276 500 36566 7257 -41 ENROUTE
2026-08-17 21:12:14 275 501 36565 7302 -41 ENROUTE
2026-08-17 21:12:44 278 502 36567 7347 -41 ENROUTE
2026-08-17 21:13:14 278 503 36567 7391 -41 ENROUTE
2026-08-17 21:13:44 277 501 36569 7433 -41 ENROUTE
2026-08-17 21:14:14 277 502 36569 7476 -41 ENROUTE
2026-08-17 21:14:44 275 501 36568 7519 -41 ENROUTE
2026-08-17 21:15:14 279 502 36571 7563 -41 ENROUTE
2026-08-17 21:15:44 280 499 36577 7603 -41 ENROUTE
2026-08-17 21:16:14 278 497 36578 7644 -41 ENROUTE
2026-08-17 21:16:44 278 496 36577 7686 -41 ENROUTE
2026-08-17 21:17:14 277 495 36575 7728 -41 ENROUTE
2026-08-17 21:17:44 277 495 36573 7771 -41 ENROUTE
2026-08-17 21:18:14 277 494 36572 7814 -41 ENROUTE
2026-08-17 21:18:44 277 494 36572 7857 -41 ENROUTE
2026-08-17 21:19:14 277 494 36572 7900 -41 ENROUTE
2026-08-17 21:19:44 277 494 36572 7943 -41 ENROUTE
2026-08-17 21:20:14 277 495 36573 7986 -41 ENROUTE
2026-08-17 21:20:44 277 495 36572 8030 -42 ENROUTE
2026-08-17 21:21:14 276 495 36580 8075 -42 ENROUTE
2026-08-17 21:21:44 276 496 36582 8120 -42 ENROUTE
2026-08-17 21:22:14 278 497 36578 8165 -42 ENROUTE
2026-08-17 21:22:44 279 496 36579 8206 -42 ENROUTE
2026-08-17 21:23:14 278 494 36579 8247 -41 ENROUTE
2026-08-17 21:23:44 278 498 36578 8295 -41 ENROUTE
2026-08-17 21:24:14 278 497 36580 8337 -41 ENROUTE
2026-08-17 21:24:44 277 497 36580 8381 -41 ENROUTE
2026-08-17 21:25:14 279 500 36580 8427 -41 ENROUTE
2026-08-17 21:25:44 279 498 36584 8467 -41 ENROUTE
2026-08-17 21:26:14 278 498 36583 8511 -41 ENROUTE
2026-08-17 21:26:44 278 499 36581 8555 -41 ENROUTE
2026-08-17 21:27:14 279 498 36583 8597 -41 ENROUTE
2026-08-17 21:27:44 278 498 36583 8641 -41 ENROUTE
2026-08-17 21:28:14 277 499 36582 8685 -41 ENROUTE
2026-08-17 21:28:44 278 498 36583 8727 -41 ENROUTE
2026-08-17 21:29:14 275 501 36579 8774 -41 ENROUTE
2026-08-17 21:29:44 276 504 36604 8824 -41 CLIMB
2026-08-17 21:30:14 277 504 36601 8869 -41 ENROUTE
2026-08-17 21:30:44 277 504 36604 8912 -41 ENROUTE
2026-08-17 21:31:14 277 505 36598 8956 -41 ENROUTE
2026-08-17 21:31:44 278 504 36599 9000 -41 ENROUTE
2026-08-17 21:32:14 277 503 36600 9041 -41 ENROUTE
2026-08-17 21:32:44 277 504 36599 9085 -41 ENROUTE
2026-08-17 21:33:14 277 504 36600 9129 -41 ENROUTE
2026-08-17 21:33:44 277 504 36600 9172 -41 ENROUTE
2026-08-17 21:34:14 277 504 36600 9215 -41 ENROUTE
2026-08-17 21:34:44 277 504 36601 9258 -41 ENROUTE
2026-08-17 21:35:14 277 504 36601 9302 -41 ENROUTE
2026-08-17 21:35:44 277 504 36602 9345 -41 ENROUTE
2026-08-17 21:36:14 277 504 36603 9388 -41 ENROUTE
2026-08-17 21:36:44 277 504 36603 9432 -41 ENROUTE
2026-08-17 21:37:14 278 504 36590 9475 -41 DESCENT
2026-08-17 21:37:44 277 504 36419 9513 -41 CLIMB
2026-08-17 21:38:14 278 507 36590 9567 -41 ENROUTE
2026-08-17 21:38:44 277 507 36590 9609 -41 ENROUTE
2026-08-17 21:39:14 277 507 36590 9653 -41 ENROUTE
2026-08-17 21:39:44 277 507 36590 9696 -41 ENROUTE
2026-08-17 21:40:14 278 507 36591 9740 -41 ENROUTE
2026-08-17 21:40:44 278 507 36592 9784 -41 ENROUTE
2026-08-17 21:41:14 278 507 36593 9827 -41 ENROUTE
2026-08-17 21:41:44 278 508 36593 9871 -41 ENROUTE
2026-08-17 21:42:14 278 508 36595 9914 -41 ENROUTE
2026-08-17 21:42:44 278 507 36596 9958 -41 ENROUTE
2026-08-17 21:43:14 278 507 36596 10001 -41 ENROUTE
2026-08-17 21:43:44 278 507 36596 10044 -41 ENROUTE
2026-08-17 21:44:14 278 507 36597 10088 -41 ENROUTE
2026-08-17 21:44:44 278 507 36597 10131 -41 ENROUTE
2026-08-17 21:45:14 279 507 36599 10175 -41 ENROUTE
2026-08-17 21:45:44 278 508 36588 10219 -41 ENROUTE
2026-08-17 21:46:14 278 508 36588 10262 -41 ENROUTE
2026-08-17 21:46:44 277 508 36583 10306 -41 ENROUTE
2026-08-17 21:47:14 278 510 36583 10352 -41 ENROUTE
2026-08-17 21:47:44 279 509 36583 10394 -41 ENROUTE
2026-08-17 21:48:14 278 509 36586 10437 -41 ENROUTE
2026-08-17 21:48:44 277 509 36583 10482 -41 ENROUTE
2026-08-17 21:49:14 278 510 36588 10525 -41 ENROUTE
2026-08-17 21:49:44 278 509 36588 10568 -41 ENROUTE
2026-08-17 21:50:14 278 509 36588 10611 -41 ENROUTE
2026-08-17 21:50:44 278 509 36588 10655 -41 ENROUTE
2026-08-17 21:51:14 278 509 36588 10698 -41 ENROUTE
2026-08-17 21:51:44 278 509 36589 10742 -41 ENROUTE
2026-08-17 21:52:14 278 510 36589 10786 -41 ENROUTE
2026-08-17 21:52:44 278 510 36589 10830 -41 ENROUTE
2026-08-17 21:53:14 278 511 36589 10874 -41 ENROUTE
2026-08-17 21:53:44 279 511 36591 10918 -41 ENROUTE
2026-08-17 21:54:14 277 510 36591 10961 -41 ENROUTE
2026-08-17 21:54:44 277 510 36590 11004 -41 ENROUTE
2026-08-17 21:55:14 277 510 36589 11049 -41 ENROUTE
2026-08-17 21:55:44 278 510 36592 11092 -41 ENROUTE
2026-08-17 21:56:14 278 510 36592 11135 -41 ENROUTE
2026-08-17 21:56:44 278 509 36593 11178 -41 ENROUTE
2026-08-17 21:57:14 277 509 36593 11221 -41 ENROUTE
2026-08-17 21:57:44 278 510 36594 11265 -41 ENROUTE
2026-08-17 21:58:14 278 508 36592 11307 -41 ENROUTE
2026-08-17 21:58:44 278 509 36590 11351 -41 ENROUTE
2026-08-17 21:59:14 277 508 36590 11394 -41 ENROUTE
2026-08-17 21:59:44 277 507 36593 11436 -41 ENROUTE
2026-08-17 22:00:14 279 508 36593 11481 -41 ENROUTE
2026-08-17 22:00:44 279 507 36595 11523 -41 ENROUTE
2026-08-17 22:01:14 276 506 36584 11565 -41 ENROUTE
2026-08-17 22:01:44 280 508 36586 11611 -41 ENROUTE
2026-08-17 22:02:14 276 507 36586 11653 -41 ENROUTE
2026-08-17 22:02:44 278 511 36584 11702 -41 ENROUTE
2026-08-17 22:03:14 280 509 36587 11744 -41 ENROUTE
2026-08-17 22:03:44 278 508 36588 11786 -41 ENROUTE
2026-08-17 22:04:14 280 507 36592 11828 -41 ENROUTE
2026-08-17 22:04:44 280 508 36587 11873 -41 ENROUTE
2026-08-17 22:05:14 278 507 36585 11915 -41 ENROUTE
2026-08-17 22:05:44 279 507 36589 11959 -41 ENROUTE
2026-08-17 22:06:14 277 508 36586 12004 -41 ENROUTE
2026-08-17 22:06:44 278 510 36584 12050 -41 ENROUTE
2026-08-17 22:07:14 279 508 36589 12091 -41 ENROUTE
2026-08-17 22:07:44 278 508 36588 12135 -41 ENROUTE
2026-08-17 22:08:14 279 507 36586 12177 -41 ENROUTE
2026-08-17 22:08:44 279 507 36586 12221 -41 ENROUTE
2026-08-17 22:09:14 279 508 36585 12265 -41 ENROUTE
2026-08-17 22:09:44 278 509 36584 12310 -41 ENROUTE
2026-08-17 22:10:14 278 508 36584 12352 -41 ENROUTE
2026-08-17 22:10:44 280 507 36582 12394 -41 ENROUTE
2026-08-17 22:11:14 279 507 36578 12439 -41 ENROUTE
2026-08-17 22:11:44 278 507 36577 12482 -41 ENROUTE
2026-08-17 22:12:14 277 507 36577 12524 -41 ENROUTE
2026-08-17 22:12:44 278 507 36577 12569 -41 ENROUTE
2026-08-17 22:13:14 278 506 36578 12611 -41 ENROUTE
2026-08-17 22:13:44 278 507 36577 12656 -41 ENROUTE
2026-08-17 22:14:14 279 506 36579 12698 -41 ENROUTE
2026-08-17 22:14:44 278 506 36579 12741 -41 ENROUTE
2026-08-17 22:15:14 279 505 36581 12784 -41 ENROUTE
2026-08-17 22:15:44 279 506 36581 12828 -41 ENROUTE
2026-08-17 22:16:14 278 505 36566 12870 -41 ENROUTE
2026-08-17 22:16:44 277 504 36566 12913 -41 ENROUTE
2026-08-17 22:17:14 278 505 36566 12957 -41 ENROUTE
2026-08-17 22:17:44 279 505 36567 13001 -41 ENROUTE
2026-08-17 22:18:14 277 505 36567 13044 -41 ENROUTE
2026-08-17 22:18:44 279 504 36569 13087 -41 ENROUTE
2026-08-17 22:19:14 278 503 36569 13129 -41 ENROUTE
2026-08-17 22:19:44 278 506 36567 13176 -41 ENROUTE
2026-08-17 22:20:14 278 506 36568 13220 -41 ENROUTE
2026-08-17 22:20:44 279 507 36569 13264 -41 ENROUTE
2026-08-17 22:21:14 278 507 36569 13308 -41 ENROUTE
2026-08-17 22:21:44 278 507 36570 13351 -41 ENROUTE
2026-08-17 22:22:14 278 507 36565 13394 -42 ENROUTE
2026-08-17 22:22:44 278 508 36571 13438 -42 ENROUTE
2026-08-17 22:23:14 279 508 36567 13482 -42 ENROUTE
2026-08-17 22:23:44 279 507 36574 13527 -41 ENROUTE
2026-08-17 22:24:14 278 509 36573 13572 -41 ENROUTE
2026-08-17 22:24:44 279 509 36574 13616 -41 ENROUTE
2026-08-17 22:25:14 278 508 36573 13659 -41 ENROUTE
2026-08-17 22:25:44 279 510 36563 13705 -41 ENROUTE
2026-08-17 22:26:14 278 509 36566 13748 -42 ENROUTE
2026-08-17 22:26:44 278 509 36566 13791 -42 ENROUTE
2026-08-17 22:27:14 279 509 36568 13835 -41 ENROUTE
2026-08-17 22:27:44 279 509 36569 13878 -41 ENROUTE
2026-08-17 22:28:14 279 508 36569 13921 -41 ENROUTE
2026-08-17 22:28:44 279 508 36569 13965 -41 ENROUTE
2026-08-17 22:29:14 279 508 36570 14009 -41 ENROUTE
2026-08-17 22:29:44 279 508 36562 14052 -41 ENROUTE
2026-08-17 22:30:14 279 508 36562 14096 -41 ENROUTE
2026-08-17 22:30:44 278 507 36571 14139 -41 ENROUTE
2026-08-17 22:31:14 279 502 36593 14186 -41 ENROUTE
2026-08-17 22:31:44 279 500 36566 14229 -41 ENROUTE
2026-08-17 22:32:14 279 503 36569 14273 -41 ENROUTE
2026-08-17 22:32:44 279 503 36565 14317 -41 ENROUTE
2026-08-17 22:33:14 279 502 36562 14361 -41 ENROUTE
2026-08-17 22:33:44 279 503 36563 14405 -41 ENROUTE
2026-08-17 22:34:14 279 502 36562 14450 -41 ENROUTE
2026-08-17 22:34:44 279 503 36563 14493 -41 ENROUTE
2026-08-17 22:35:14 279 502 36559 14536 -42 ENROUTE
2026-08-17 22:35:44 279 501 36558 14578 -42 ENROUTE
2026-08-17 22:36:14 273 492 36548 14611 -42 ENROUTE
2026-08-17 22:36:44 271 488 36550 14647 -42 ENROUTE
2026-08-17 22:37:14 268 488 36566 14687 -41 ENROUTE
2026-08-17 22:37:44 270 490 36518 14727 -41 DESCENT
2026-08-17 22:38:14 270 485 35796 14745 -40 DESCENT
2026-08-17 22:38:44 273 479 34957 14757 -38 DESCENT
2026-08-17 22:39:14 271 474 34114 14770 -36 DESCENT
2026-08-17 22:39:44 271 467 33294 14783 -34 DESCENT
2026-08-17 22:40:14 274 462 32451 14795 -32 DESCENT
2026-08-17 22:40:44 276 455 31661 14808 -30 DESCENT
2026-08-17 22:41:14 275 448 30863 14821 -28 DESCENT
2026-08-17 22:41:44 275 441 30070 14834 -26 DESCENT
2026-08-17 22:42:14 273 436 29215 14846 -24 DESCENT
2026-08-17 22:42:44 274 430 28397 14858 -22 DESCENT
2026-08-17 22:43:14 275 424 27561 14871 -20 DESCENT
2026-08-17 22:43:44 275 418 26749 14883 -18 DESCENT
2026-08-17 22:44:14 275 412 25934 14895 -16 DESCENT
2026-08-17 22:44:44 275 405 25124 14907 -14 DESCENT
2026-08-17 22:45:14 276 399 24310 14919 -12 DESCENT
2026-08-17 22:45:44 276 392 23501 14930 -11 DESCENT
2026-08-17 22:46:14 276 385 22714 14942 -10 DESCENT
2026-08-17 22:46:44 275 379 21882 14953 -8 DESCENT
2026-08-17 22:47:14 274 373 21055 14964 -7 DESCENT
2026-08-17 22:47:44 275 368 20216 14975 -6 DESCENT
2026-08-17 22:48:14 275 362 19397 14986 -4 DESCENT
2026-08-17 22:48:44 275 357 18561 14996 -3 DESCENT
2026-08-17 22:49:14 275 351 17735 15006 -1 DESCENT
2026-08-17 22:49:44 275 345 16907 15016 0 DESCENT
2026-08-17 22:50:14 275 339 16073 15026 1 DESCENT
2026-08-17 22:50:44 275 333 15228 15035 2 DESCENT
2026-08-17 22:51:14 275 328 14383 15044 4 DESCENT
2026-08-17 22:51:44 274 323 13525 15052 5 DESCENT
2026-08-17 22:52:14 274 318 12645 15061 6 DESCENT
2026-08-17 22:52:44 273 314 11753 15068 8 DESCENT
2026-08-17 22:53:14 273 310 10849 15075 9 DESCENT
2026-08-17 22:53:44 263 301 10316 15087 10 ENROUTE
2026-08-17 22:54:14 253 289 10141 15106 10 DESCENT
2026-08-17 22:54:44 222 257 9903 15108 11 DESCENT
2026-08-17 22:55:14 211 239 8997 15108 12 DESCENT
2026-08-17 22:55:44 200 222 8061 15109 13 DESCENT
2026-08-17 22:56:14 188 206 7124 15110 14 DESCENT
2026-08-17 22:56:44 180 194 6170 15113 16 DESCENT
2026-08-17 22:57:14 175 187 5207 15115 17 DESCENT
2026-08-17 22:57:44 175 184 4116 15118 19 DESCENT
2026-08-17 22:58:14 154 162 3891 15136 20 ENROUTE
2026-08-17 22:58:44 147 156 3888 15195 20 ENROUTE
2026-08-17 22:59:14 148 158 3888 15270 20 ENROUTE
2026-08-17 22:59:44 150 157 3891 15342 20 ENROUTE
2026-08-17 23:00:14 151 158 4039 15425 20 CLIMB
2026-08-17 23:00:44 150 158 4116 15502 19 ENROUTE
2026-08-17 23:01:14 148 157 4114 15576 19 ENROUTE
2026-08-17 23:01:44 148 157 4118 15650 19 ENROUTE
2026-08-17 23:02:14 147 157 4115 15721 19 ENROUTE
2026-08-17 23:02:44 149 158 4115 15795 19 ENROUTE
2026-08-17 23:03:14 151 159 4118 15869 19 ENROUTE
2026-08-17 23:03:44 149 157 4115 15941 19 ENROUTE
2026-08-17 23:04:14 147 157 4114 16014 19 ENROUTE
2026-08-17 23:04:44 148 157 4115 16087 19 ENROUTE
2026-08-17 23:05:14 150 158 4117 16161 19 ENROUTE
2026-08-17 23:05:44 151 160 4122 16236 19 ENROUTE
2026-08-17 23:06:14 149 157 4119 16306 19 ENROUTE
2026-08-17 23:06:44 147 157 4117 16377 19 ENROUTE
2026-08-17 23:07:14 147 155 4114 16448 19 ENROUTE
2026-08-17 23:07:44 151 160 4050 16521 20 DESCENT
2026-08-17 23:08:14 148 159 3672 16571 25 DESCENT
2026-08-17 23:08:44 148 156 3290 16618 27 DESCENT
2026-08-17 23:09:14 147 154 2874 16663 26 DESCENT
2026-08-17 23:09:44 147 154 2460 16712 24 DESCENT
2026-08-17 23:10:14 147 154 2053 16760 24 APPROACH
2026-08-17 23:10:44 149 154 1648 16809 25 APPROACH
2026-08-17 23:11:14 149 153 1243 16856 25 APPROACH
2026-08-17 23:11:44 149 152 917 16912 26 ON FINAL
2026-08-17 23:12:14 147 147 488 16955 28 ON FINAL
2026-08-17 23:12:44 134 132 213 16999 28 ON FINAL
2026-08-17 23:13:14 27 22 191 17019 28 TAXI TO APRON
2026-08-17 23:13:44 12 10 187 17030 28 TAXI TO APRON
2026-08-17 23:14:14 11 11 176 17055 28 TAXI TO APRON
2026-08-17 23:14:44 7 6 180 17067 28 TAXI TO APRON
2026-08-17 23:15:14 5 4 182 17082 28 TAXI TO APRON
2026-08-17 23:15:44 6 12 182 17103 28 TAXI TO APRON
2026-08-17 23:16:14 17 24 177 17120 28 TAXI TO APRON
2026-08-17 23:16:44 5 12 174 17131 28 TAXI TO APRON
2026-08-17 23:17:14 9 10 175 17154 28 TAXI TO APRON
2026-08-17 23:17:44 5 14 189 17178 28 TAXI TO APRON
2026-08-17 23:18:14 16 19 190 17199 28 TAXI TO APRON
2026-08-17 23:18:44 0 0 174 17219 28 TAXI TO APRON
2026-08-17 23:19:14 0 0 174 17228 28 TAXI TO APRON
  • Join our VA!

    It has been 11 years of great learning, friendships, and stories.

  • Sign up now!